Hovedside
METAR-TAF:

METAR-TAF

Lufthavner :

Vancouver internasjonale lufthavn

Vancouver, Britisk Columbia, Canada

breddegrad: 49-11N, lengdegrad: 123-10W, høyde over havet: 3 m

Gjeldene værobservasjon

Denne rapporten ble laget for 38 minutter siden, klokken 12:00 UTC
Vind 10 kt fra Vest-nordvest
Temperatur 16°C
Luftfuktighet 88%
Trykk 1016 hPa
Sikt: 48.3 km
Skyfri himmel

METAR: CYVR 161200Z 30010KT 30SM SKC 16/14 A3000 RMK SLP160 DENSITY ALT 100FT

Tid: 05:38 (12:38 UTC)

Varsel

Denne rapporten ble laget for 1 time og 0 minutter siden, klokken 11:38 UTC
Varsel gyldig fra 16. klokken 12 UTC til 17. klokken 18 UTC
Vind 8 kt fra Vest-nordvest
Sikt: 10 km
Skyfri himmel
Blir
fra 17. klokken 06 UTC til 17. klokken 08 UTC
Vind 8 kt fra Øst
Blir
fra 17. klokken 15 UTC til 17. klokken 17 UTC
Vind 8 kt fra Vest-sørvest

TAF: CYVR 161138Z 1612/1718 30008KT P6SM SKC BECMG 1706/1708 10008KT BECMG 1715/1717 24008KT RMK NXT FCST BY 161500Z

Værobservasjoner og værvarsel for over 4000 flyplasser (METAR- og TAF-rapporter).

Tilgjengelige stasjoner er representert av de røde og gule prikkene på kartet.

Hold musepekeren over prikken for å se navnet på stasjonen.

Klikk så for å se værobservasjoner og -varsler.

For å forandre kartet kan du klikke på den grønne knappen med svart kryss for å zoome inn, på den grønne knappen med strek for å zoome ut, eller på de grønne pilene for å se tilstøtende kart.


METAR-TAF: